Time;durP1;ratioP1;P1;durP2;ratioP2;P2;SDS_P1;SDS_P2;PMS_P1;PMS_P2;Temp;Humidity;BMP_temperature;BMP_pressure;BME280_temperature;BME280_humidity;BME280_pressure;Samples;Min_cycle;Max_cycle;Signal;HPM_P1;HPM_P2
2022/08/18 00:02:28;;;;;;;16.00;8.40;;;18.80;99.90;;;;;;4987180;28;20050;-58
2022/08/18 00:04:54;;;;;;;15.35;8.70;;;18.90;99.90;;;;;;4986616;28;20034;-58
2022/08/18 00:07:29;;;;;;;13.80;8.30;;;18.90;99.90;;;;;;4979869;28;20061;-58
2022/08/18 00:09:57;;;;;;;15.45;8.48;;;18.80;99.90;;;;;;4986807;28;20042;-58
2022/08/18 00:12:22;;;;;;;15.10;8.77;;;18.90;99.90;;;;;;4986956;28;20050;-59
2022/08/18 00:14:49;;;;;;;14.30;8.55;;;19.00;99.90;;;;;;4987066;28;20077;-58
2022/08/18 00:17:16;;;;;;;13.70;8.30;;;18.90;99.90;;;;;;4986900;28;20142;-58
2022/08/18 00:19:42;;;;;;;14.18;8.45;;;19.00;99.90;;;;;;4986877;28;20042;-58
2022/08/18 00:22:09;;;;;;;20.15;9.55;;;18.90;99.90;;;;;;4985890;28;20035;-58
2022/08/18 00:24:34;;;;;;;14.23;8.75;;;18.90;99.90;;;;;;4986719;28;20057;-59
2022/08/18 00:27:00;;;;;;;17.92;8.93;;;19.00;99.90;;;;;;4986658;28;20046;-58
2022/08/18 00:29:26;;;;;;;14.70;7.97;;;18.90;99.90;;;;;;4986500;28;20416;-58
2022/08/18 00:31:52;;;;;;;19.38;8.93;;;18.90;99.90;;;;;;4986710;28;20054;-60
2022/08/18 00:34:17;;;;;;;18.75;8.00;;;18.90;99.90;;;;;;4986924;28;20147;-58
2022/08/18 00:36:43;;;;;;;15.02;8.65;;;18.90;99.90;;;;;;4968410;28;20057;-58
2022/08/18 00:39:09;;;;;;;19.38;8.57;;;18.90;99.90;;;;;;4969247;28;20043;-59
2022/08/18 00:41:35;;;;;;;18.15;8.93;;;18.90;99.90;;;;;;4986396;28;20148;-61
2022/08/18 00:44:03;;;;;;;18.13;8.18;;;18.90;99.90;;;;;;4986449;28;20050;-59
2022/08/18 00:46:32;;;;;;;15.98;7.63;;;18.90;99.90;;;;;;4986392;28;20085;-58
2022/08/18 00:48:58;;;;;;;16.48;7.70;;;18.90;99.90;;;;;;4986302;28;20108;-59
2022/08/18 00:51:35;;;;;;;15.32;7.57;;;18.80;99.90;;;;;;4985221;28;20108;-58
2022/08/18 00:54:22;;;;;;;16.80;8.52;;;18.80;99.90;;;;;;4986423;28;20164;-59
2022/08/18 00:56:55;;;;;;;16.15;8.65;;;18.80;99.90;;;;;;4988472;28;20034;-58
2022/08/18 00:59:25;;;;;;;18.20;8.27;;;18.80;99.90;;;;;;4990701;28;20061;-58
2022/08/18 01:01:52;;;;;;;16.08;8.40;;;18.70;99.90;;;;;;4990308;28;20046;-58
2022/08/18 01:04:35;;;;;;;15.65;8.57;;;18.80;99.90;;;;;;4991064;28;20062;-58
2022/08/18 01:07:08;;;;;;;18.08;7.75;;;18.80;99.90;;;;;;5019350;28;20041;-58
2022/08/18 01:09:35;;;;;;;19.23;9.07;;;18.80;99.90;;;;;;5009827;28;20544;-60
2022/08/18 01:12:00;;;;;;;17.65;8.55;;;18.70;99.90;;;;;;5009518;28;20041;-58
2022/08/18 01:14:26;;;;;;;14.00;7.45;;;18.80;99.90;;;;;;5010073;28;20522;-59
2022/08/18 01:22:46;;;;;;;16.25;8.30;;;18.40;99.90;;;;;;5008841;28;20041;-59
2022/08/18 01:27:56;;;;;;;;;;;18.30;99.90;;;;;;5009748;28;20061;-58
2022/08/18 01:30:24;;;;;;;18.10;8.50;;;18.30;99.90;;;;;;4992088;28;19932;-58
2022/08/18 01:32:51;;;;;;;18.10;8.95;;;18.30;99.90;;;;;;5009438;28;20053;-58
2022/08/18 01:35:20;;;;;;;17.52;8.55;;;18.30;99.90;;;;;;5009490;28;20054;-58
2022/08/18 01:37:46;;;;;;;18.58;8.68;;;18.40;99.90;;;;;;5008496;28;20065;-58
2022/08/18 01:40:13;;;;;;;14.40;8.85;;;18.30;99.90;;;;;;5009498;28;20830;-58
2022/08/18 01:42:42;;;;;;;16.67;8.75;;;18.30;99.90;;;;;;5008920;28;20042;-59
2022/08/18 01:45:08;;;;;;;21.55;9.50;;;18.20;99.90;;;;;;5009014;28;20060;-58
2022/08/18 01:47:35;;;;;;;19.35;10.43;;;18.20;99.90;;;;;;5008713;28;20042;-59
2022/08/18 01:50:02;;;;;;;20.05;10.23;;;18.20;99.90;;;;;;5009045;28;20045;-59
2022/08/18 01:52:28;;;;;;;21.40;9.77;;;18.20;99.90;;;;;;5008080;28;20061;-58
2022/08/18 01:54:56;;;;;;;20.40;10.48;;;18.10;99.90;;;;;;5009167;28;20404;-59
2022/08/18 01:57:22;;;;;;;18.35;9.07;;;18.10;99.90;;;;;;4991562;28;20049;-59
2022/08/18 01:59:48;;;;;;;19.27;8.75;;;18.20;99.90;;;;;;5008370;28;20499;-58
2022/08/18 02:02:19;;;;;;;14.52;9.45;;;18.10;99.90;;;;;;5008715;28;20049;-58
2022/08/18 02:04:46;;;;;;;17.55;9.40;;;18.20;99.90;;;;;;5008725;28;20038;-58
2022/08/18 02:07:13;;;;;;;18.15;9.70;;;18.20;99.90;;;;;;4969135;28;20057;-58
2022/08/18 02:09:41;;;;;;;17.55;9.35;;;18.20;99.90;;;;;;5007764;28;20045;-58
2022/08/18 02:12:07;;;;;;;19.42;10.32;;;18.20;99.90;;;;;;5008392;28;20034;-58
2022/08/18 02:14:34;;;;;;;18.80;10.07;;;18.30;99.90;;;;;;5008697;28;20042;-58
2022/08/18 02:17:01;;;;;;;18.50;9.63;;;18.30;99.90;;;;;;5008211;28;20076;-58
2022/08/18 02:19:31;;;;;;;22.23;10.50;;;18.30;99.90;;;;;;5008532;28;20046;-59
2022/08/18 02:21:56;;;;;;;21.63;10.77;;;18.20;99.90;;;;;;5007966;28;20520;-58
2022/08/18 02:24:22;;;;;;;21.40;11.02;;;18.30;99.90;;;;;;5008697;28;20050;-58
2022/08/18 02:26:47;;;;;;;25.33;11.20;;;18.30;99.90;;;;;;5007964;28;20053;-58
2022/08/18 02:29:13;;;;;;;21.40;11.52;;;18.20;99.90;;;;;;5007810;28;20127;-58
2022/08/18 02:31:38;;;;;;;23.08;11.48;;;18.20;99.90;;;;;;5008190;28;20165;-58
2022/08/18 02:34:04;;;;;;;23.13;11.20;;;18.20;99.90;;;;;;5008541;28;20037;-58
2022/08/18 02:36:30;;;;;;;22.45;11.07;;;18.20;99.90;;;;;;5007475;28;20042;-58
2022/08/18 02:38:55;;;;;;;23.92;11.98;;;18.40;99.90;;;;;;5008369;28;20100;-58
2022/08/18 02:41:21;;;;;;;20.88;11.13;;;18.40;99.90;;;;;;5007655;28;20041;-58
2022/08/18 02:43:47;;;;;;;20.70;11.18;;;18.30;99.90;;;;;;5007756;28;20520;-58
2022/08/18 02:46:13;;;;;;;24.08;10.88;;;18.30;99.90;;;;;;5007851;28;20045;-58
2022/08/18 02:48:39;;;;;;;22.63;10.57;;;18.30;99.90;;;;;;5007422;28;20479;-58
2022/08/18 02:51:12;;;;;;;26.00;10.63;;;18.30;99.90;;;;;;5006076;28;20380;-58
2022/08/18 02:53:40;;;;;;;24.85;11.07;;;18.20;99.90;;;;;;4989415;28;20137;-59
2022/08/18 02:59:11;;;;;;;18.55;10.57;;;18.30;99.90;;;;;;4973262;28;20149;-58
2022/08/18 03:01:39;;;;;;;23.20;11.52;;;18.30;99.90;;;;;;5006817;28;20403;-59
2022/08/18 03:04:07;;;;;;;23.13;11.88;;;18.30;99.90;;;;;;5007084;28;20539;-58
2022/08/18 03:06:35;;;;;;;24.98;10.95;;;18.30;99.90;;;;;;5005671;28;20056;-58
2022/08/18 03:09:02;;;;;;;26.75;12.18;;;18.40;99.90;;;;;;5006924;28;20580;-58
2022/08/18 03:11:28;;;;;;;26.48;11.70;;;18.30;99.90;;;;;;4989605;28;20042;-58
2022/08/18 03:13:55;;;;;;;24.25;11.68;;;18.40;99.90;;;;;;5006749;28;20554;-58
2022/08/18 03:16:23;;;;;;;29.00;11.82;;;18.40;99.90;;;;;;4989235;28;20416;-58
2022/08/18 03:18:50;;;;;;;25.67;12.38;;;18.30;99.90;;;;;;5006309;28;20431;-58
2022/08/18 03:21:20;;;;;;;25.08;11.77;;;18.30;99.90;;;;;;5005167;28;20064;-58
2022/08/18 03:23:46;;;;;;;27.70;11.75;;;18.30;99.90;;;;;;5006430;28;20407;-57
2022/08/18 03:26:13;;;;;;;25.33;13.55;;;18.40;99.90;;;;;;4988951;28;20128;-58
2022/08/18 03:28:45;;;;;;;25.00;12.93;;;18.20;99.90;;;;;;4988388;28;20046;-58
2022/08/18 03:31:13;;;;;;;26.40;14.00;;;18.30;99.90;;;;;;5006420;28;20401;-58
2022/08/18 03:33:41;;;;;;;21.90;12.52;;;18.30;99.90;;;;;;4988395;28;20077;-58
2022/08/18 03:36:10;;;;;;;26.02;12.82;;;18.20;99.90;;;;;;5005357;28;20396;-59
2022/08/18 03:38:37;;;;;;;27.33;12.70;;;18.20;99.90;;;;;;5006058;28;20125;-58
2022/08/18 03:41:04;;;;;;;25.48;13.82;;;18.20;99.90;;;;;;5006349;28;20056;-59
2022/08/18 03:43:30;;;;;;;31.05;13.80;;;18.20;99.90;;;;;;5006650;28;20120;-58
2022/08/18 03:46:04;;;;;;;27.10;12.80;;;18.20;99.90;;;;;;5006145;28;20052;-58
2022/08/18 03:48:32;;;;;;;25.40;12.00;;;18.20;99.90;;;;;;5006475;28;20624;-58
2022/08/18 03:51:25;;;;;;;22.48;12.93;;;18.20;99.90;;;;;;5005072;28;20049;-58
2022/08/18 03:53:53;;;;;;;25.77;13.43;;;18.20;99.90;;;;;;5003680;28;20053;-58
2022/08/18 03:56:23;;;;;;;25.73;14.07;;;18.20;99.90;;;;;;5006066;28;20037;-58
2022/08/18 03:58:57;;;;;;;30.88;13.70;;;18.20;99.90;;;;;;5005579;28;20053;-58
2022/08/18 04:01:25;;;;;;;27.10;13.43;;;18.30;99.90;;;;;;5006439;28;20124;-58
2022/08/18 04:03:55;;;;;;;26.98;12.15;;;18.30;99.90;;;;;;5005706;28;20861;-58
2022/08/18 04:06:31;;;;;;;26.17;12.88;;;18.30;99.90;;;;;;5005018;28;20119;-58
2022/08/18 04:08:59;;;;;;;22.63;11.55;;;18.30;99.90;;;;;;5005705;28;20057;-58
2022/08/18 04:11:27;;;;;;;22.27;11.57;;;18.30;99.90;;;;;;5005907;28;20468;-58
2022/08/18 04:13:56;;;;;;;25.73;11.10;;;18.40;99.90;;;;;;5005952;28;20068;-58
2022/08/18 04:16:27;;;;;;;22.80;11.32;;;18.40;99.90;;;;;;5005666;28;20058;-58
2022/08/18 04:18:52;;;;;;;30.15;11.98;;;18.50;99.90;;;;;;5005704;28;20095;-58
2022/08/18 04:21:18;;;;;;;30.42;11.90;;;18.50;99.90;;;;;;5005282;28;20037;-58
2022/08/18 04:23:44;;;;;;;25.85;11.50;;;18.40;99.90;;;;;;5006154;28;20041;-58
2022/08/18 04:26:11;;;;;;;26.88;11.27;;;18.40;99.90;;;;;;5005810;28;20385;-58
2022/08/18 04:28:38;;;;;;;27.15;11.48;;;18.40;99.90;;;;;;5005847;28;20050;-60
2022/08/18 04:31:09;;;;;;;22.83;10.27;;;18.40;99.90;;;;;;5005247;28;20454;-58
2022/08/18 04:33:35;;;;;;;23.27;10.20;;;18.40;99.90;;;;;;4988098;28;20050;-61
2022/08/18 04:36:11;;;;;;;24.00;11.10;;;18.40;99.90;;;;;;5005692;28;20037;-58
2022/08/18 04:38:37;;;;;;;20.77;10.65;;;18.40;99.90;;;;;;5004746;28;20401;-61
2022/08/18 04:41:04;;;;;;;25.63;12.20;;;18.30;99.90;;;;;;4988142;28;20046;-58
2022/08/18 04:43:30;;;;;;;22.33;10.70;;;18.40;99.90;;;;;;5006039;28;20053;-58
2022/08/18 04:46:00;;;;;;;27.45;12.27;;;18.40;99.90;;;;;;5005725;28;20045;-58
2022/08/18 04:48:34;;;;;;;20.50;10.25;;;18.40;99.90;;;;;;5005550;28;20058;-58
2022/08/18 04:51:07;;;;;;;18.83;10.03;;;18.40;99.90;;;;;;5004681;28;20041;-58
2022/08/18 04:53:46;;;;;;;23.67;10.50;;;18.40;99.90;;;;;;5005606;28;20281;-58
2022/08/18 04:56:25;;;;;;;17.98;10.60;;;18.40;99.90;;;;;;4988274;28;20054;-58
2022/08/18 04:59:05;;;;;;;24.17;10.98;;;18.40;99.90;;;;;;5005226;28;20051;-58
2022/08/18 05:01:37;;;;;;;23.15;10.40;;;18.40;99.90;;;;;;5005840;28;20049;-58
2022/08/18 05:04:03;;;;;;;22.45;9.90;;;18.40;99.90;;;;;;5005594;28;20046;-58
2022/08/18 05:06:29;;;;;;;20.90;9.65;;;18.40;99.90;;;;;;4986805;28;20050;-58
2022/08/18 05:08:57;;;;;;;18.55;9.48;;;18.40;99.90;;;;;;5005155;28;20093;-58
2022/08/18 05:11:27;;;;;;;22.50;11.15;;;18.50;99.90;;;;;;5005432;28;20052;-58
2022/08/18 05:13:55;;;;;;;18.13;10.18;;;18.50;99.90;;;;;;5004748;28;20404;-58
2022/08/18 05:16:21;;;;;;;16.58;9.48;;;18.50;99.90;;;;;;4987855;28;20233;-58
2022/08/18 05:18:47;;;;;;;21.95;9.55;;;18.50;99.90;;;;;;4987531;28;20488;-58
2022/08/18 05:21:14;;;;;;;25.35;10.35;;;18.50;99.90;;;;;;5004463;28;20502;-58
2022/08/18 05:23:45;;;;;;;24.88;10.27;;;18.40;99.90;;;;;;5005290;28;20404;-58
2022/08/18 05:26:13;;;;;;;19.75;9.55;;;18.50;99.90;;;;;;4987623;28;20042;-61
2022/08/18 05:28:40;;;;;;;17.50;8.93;;;18.50;99.90;;;;;;5004777;28;20060;-58
2022/08/18 05:31:10;;;;;;;15.90;8.57;;;18.50;99.90;;;;;;5005426;28;20113;-58
2022/08/18 05:33:38;;;;;;;15.65;8.35;;;18.50;99.90;;;;;;5005090;28;20081;-58
2022/08/18 05:36:09;;;;;;;19.75;9.07;;;18.50;99.90;;;;;;4987310;28;20145;-60
2022/08/18 05:39:01;;;;;;;17.48;9.20;;;18.50;99.90;;;;;;5005370;28;20073;-58
2022/08/18 05:41:40;;;;;;;21.95;9.20;;;18.50;99.90;;;;;;5005150;28;20133;-58
2022/08/18 05:44:08;;;;;;;17.90;8.75;;;18.50;99.90;;;;;;5008905;28;20049;-58
2022/08/18 05:46:57;;;;;;;15.20;8.48;;;18.50;99.90;;;;;;5008923;28;20092;-58
2022/08/18 05:49:24;;;;;;;17.38;8.45;;;18.50;99.90;;;;;;4991154;28;20089;-58
2022/08/18 05:52:01;;;;;;;15.52;8.57;;;18.60;99.90;;;;;;5007336;28;20129;-58
2022/08/18 05:57:26;;;;;;;20.38;9.48;;;18.70;99.90;;;;;;5008595;28;20404;-58
2022/08/18 05:59:53;;;;;;;17.88;8.80;;;18.80;99.90;;;;;;5008144;28;20488;-58
2022/08/18 06:02:33;;;;;;;17.35;9.48;;;18.80;99.90;;;;;;5008583;28;20605;-58
2022/08/18 06:05:18;;;;;;;14.52;8.20;;;18.80;99.90;;;;;;5007596;28;20042;-58
2022/08/18 06:07:57;;;;;;;18.65;8.57;;;18.80;99.90;;;;;;5007358;28;20046;-58
2022/08/18 06:10:24;;;;;;;15.32;8.60;;;18.90;99.90;;;;;;5008249;28;20045;-58
2022/08/18 06:12:56;;;;;;;18.27;8.63;;;18.90;99.90;;;;;;5008204;28;20045;-58
2022/08/18 06:15:48;;;;;;;15.60;9.50;;;19.00;99.90;;;;;;4990374;28;20089;-58
2022/08/18 06:18:41;;;;;;;18.23;8.98;;;19.00;99.90;;;;;;5008322;28;20072;-58
2022/08/18 06:21:39;;;;;;;14.93;7.97;;;19.00;99.90;;;;;;5007804;28;20446;-58
2022/08/18 06:24:17;;;;;;;14.38;8.32;;;19.00;99.90;;;;;;5008163;28;20395;-59
2022/08/18 06:27:11;;;;;;;16.95;8.57;;;19.00;99.90;;;;;;5007712;28;20069;-58
2022/08/18 06:29:46;;;;;;;21.15;8.98;;;19.10;99.90;;;;;;5004806;28;20400;-59
2022/08/18 06:32:59;;;;;;;17.63;9.38;;;19.20;99.90;;;;;;5007827;28;20471;-58
2022/08/18 06:35:33;;;;;;;23.27;9.48;;;19.10;99.90;;;;;;4907365;29;20139;-58
2022/08/18 06:41:09;;;;;;;19.50;9.82;;;19.30;99.90;;;;;;5007404;28;20050;-58
2022/08/18 06:43:57;;;;;;;17.30;8.85;;;19.30;99.90;;;;;;5007205;28;20095;-59
2022/08/18 06:46:43;;;;;;;20.95;9.52;;;19.30;99.90;;;;;;5007503;28;20096;-58
2022/08/18 06:49:13;;;;;;;16.15;9.32;;;19.30;99.90;;;;;;5022422;28;20038;-59
2022/08/18 06:51:50;;;;;;;15.75;9.52;;;19.30;99.90;;;;;;5005972;28;20050;-62
2022/08/18 06:54:16;;;;;;;22.50;9.20;;;19.40;99.90;;;;;;5006915;28;20064;-59
2022/08/18 06:56:42;;;;;;;15.30;8.13;;;19.40;99.90;;;;;;5022270;28;20447;-59
2022/08/18 06:59:30;;;;;;;16.30;8.70;;;19.40;99.90;;;;;;5007397;28;20460;-59
2022/08/18 07:02:23;;;;;;;18.33;8.60;;;19.40;99.90;;;;;;5006711;28;20507;-59
2022/08/18 07:05:13;;;;;;;18.25;9.02;;;19.50;99.90;;;;;;4988939;28;20054;-59
2022/08/18 07:07:41;;;;;;;15.23;8.05;;;19.50;99.90;;;;;;5006766;28;20050;-59
2022/08/18 07:10:15;;;;;;;20.55;8.90;;;19.50;99.90;;;;;;5007042;28;20053;-59
2022/08/18 07:12:40;;;;;;;;;;;19.60;99.90;;;;;;5006313;28;20072;-59
2022/08/18 07:15:10;;;;;;;14.25;7.88;;;19.60;99.90;;;;;;5006075;28;19921;-59
2022/08/18 07:17:37;;;;;;;18.02;7.93;;;19.60;99.90;;;;;;5005608;28;20049;-58
2022/08/18 07:20:08;;;;;;;14.82;8.02;;;19.50;99.90;;;;;;5005867;28;20045;-59
2022/08/18 07:22:52;;;;;;;13.75;7.55;;;19.60;99.90;;;;;;5007779;28;20408;-58
2022/08/18 07:25:30;;;;;;;17.27;7.82;;;19.60;99.90;;;;;;5007111;28;20041;-57
2022/08/18 07:28:00;;;;;;;18.08;8.48;;;19.60;99.90;;;;;;5006779;28;20046;-57
2022/08/18 07:30:32;;;;;;;13.02;7.38;;;19.60;99.90;;;;;;5007042;28;20124;-58
2022/08/18 07:33:17;;;;;;;16.02;7.05;;;19.70;99.90;;;;;;5006435;28;20571;-58
2022/08/18 07:36:07;;;;;;;15.20;7.13;;;19.70;99.90;;;;;;5005940;28;20125;-58
2022/08/18 07:38:41;;;;;;;15.82;7.22;;;19.70;99.90;;;;;;4989611;28;20057;-57
2022/08/18 07:41:19;;;;;;;17.15;6.53;;;19.70;99.90;;;;;;5006859;28;20099;-58
2022/08/18 07:43:50;;;;;;;17.80;6.50;;;19.80;99.90;;;;;;5006700;28;20412;-58
2022/08/18 07:46:24;;;;;;;14.15;6.95;;;19.80;99.90;;;;;;5006798;28;20788;-58
2022/08/18 07:48:51;;;;;;;17.20;6.82;;;19.90;99.90;;;;;;5006271;28;20046;-58
2022/08/18 07:51:35;;;;;;;14.52;7.72;;;19.90;99.90;;;;;;5006093;28;20061;-57
2022/08/18 07:54:15;;;;;;;20.80;8.00;;;19.80;99.90;;;;;;5006455;28;20048;-58
2022/08/18 07:56:53;;;;;;;13.95;7.40;;;19.80;99.90;;;;;;5006445;28;20054;-58
2022/08/18 07:59:37;;;;;;;13.75;6.90;;;19.80;99.90;;;;;;5006345;28;20534;-57
2022/08/18 08:02:31;;;;;;;21.77;7.55;;;19.80;99.90;;;;;;5006768;28;20048;-58
2022/08/18 08:05:27;;;;;;;12.13;7.15;;;19.80;99.90;;;;;;5005893;28;20086;-58
2022/08/18 08:08:01;;;;;;;17.02;7.57;;;19.80;99.90;;;;;;4980953;28;20054;-58
2022/08/18 08:10:42;;;;;;;12.05;6.10;;;19.70;99.90;;;;;;5006502;28;20041;-58
2022/08/18 08:13:36;;;;;;;13.18;5.93;;;19.70;99.90;;;;;;5006699;28;20045;-58
2022/08/18 08:16:12;;;;;;;14.00;6.30;;;19.70;99.90;;;;;;4987857;28;20058;-57
2022/08/18 08:18:53;;;;;;;12.88;5.55;;;19.70;99.90;;;;;;5004832;28;20076;-58
2022/08/18 08:21:21;;;;;;;10.02;5.63;;;19.70;99.90;;;;;;5004965;28;20416;-57
2022/08/18 08:24:08;;;;;;;10.60;4.93;;;19.70;99.90;;;;;;5004940;28;20049;-57
2022/08/18 08:26:40;;;;;;;11.00;5.32;;;19.70;99.90;;;;;;4988223;28;20049;-57
2022/08/18 08:29:24;;;;;;;18.00;8.70;;;19.80;99.90;;;;;;5005516;28;20442;-58
2022/08/18 08:32:04;;;;;;;13.93;9.55;;;19.80;99.90;;;;;;5005363;28;20410;-58
2022/08/18 08:34:56;;;;;;;13.15;9.20;;;19.80;99.90;;;;;;5024732;28;20057;-58
2022/08/18 08:37:45;;;;;;;12.52;6.30;;;19.80;99.90;;;;;;4996812;28;20053;-58
2022/08/18 08:40:17;;;;;;;13.40;6.10;;;19.70;99.90;;;;;;4990864;28;20041;-58
2022/08/18 08:43:24;;;;;;;13.52;5.88;;;19.80;99.90;;;;;;4991150;28;20043;-58
2022/08/18 08:46:04;;;;;;;15.50;5.50;;;19.80;99.90;;;;;;4990096;28;20053;-58
2022/08/18 08:48:35;;;;;;;9.80;5.13;;;19.90;99.90;;;;;;5005474;28;20054;-57
2022/08/18 08:51:13;;;;;;;13.77;4.65;;;20.00;99.90;;;;;;5004754;28;20050;-58
2022/08/18 08:53:47;;;;;;;12.68;5.13;;;20.00;99.90;;;;;;5021217;28;20503;-58
2022/08/18 08:56:16;;;;;;;13.40;5.00;;;20.10;99.90;;;;;;5024904;28;20529;-58
2022/08/18 08:58:48;;;;;;;11.68;4.90;;;20.20;99.90;;;;;;5024414;28;20049;-58
2022/08/18 09:01:20;;;;;;;11.10;4.60;;;20.20;99.90;;;;;;5005137;28;20108;-57
2022/08/18 09:04:08;;;;;;;14.48;4.65;;;20.20;99.90;;;;;;5005089;28;20516;-57
2022/08/18 09:06:57;;;;;;;9.52;3.88;;;20.20;99.90;;;;;;4993954;28;20061;-58
2022/08/18 09:09:25;;;;;;;9.48;3.38;;;20.20;99.90;;;;;;5014312;28;20053;-58
2022/08/18 09:12:12;;;;;;;8.40;3.13;;;20.20;99.90;;;;;;5024705;28;20097;-58
2022/08/18 09:15:08;;;;;;;9.25;3.13;;;20.20;99.90;;;;;;5023815;28;20045;-58
2022/08/18 09:17:49;;;;;;;9.65;3.28;;;20.30;99.90;;;;;;5007408;28;20436;-58
2022/08/18 09:20:33;;;;;;;11.02;3.63;;;20.50;99.90;;;;;;5008040;28;20130;-58
2022/08/18 09:23:12;;;;;;;8.38;3.28;;;20.50;99.90;;;;;;5008563;28;20423;-58
2022/08/18 09:25:38;;;;;;;8.10;2.75;;;20.60;99.90;;;;;;5008200;28;20564;-58
2022/08/18 09:28:15;;;;;;;9.07;3.25;;;20.70;99.90;;;;;;5008919;28;20132;-58
2022/08/18 09:30:52;;;;;;;11.38;3.10;;;21.00;99.90;;;;;;5008379;28;20543;-58
2022/08/18 09:33:47;;;;;;;8.75;3.40;;;21.10;99.90;;;;;;5008910;28;20046;-58
2022/08/18 09:36:36;;;;;;;7.57;2.63;;;21.20;99.90;;;;;;5003870;28;20575;-58
2022/08/18 09:42:08;;;;;;;7.03;2.90;;;21.40;99.90;;;;;;5000463;28;20053;-58
2022/08/18 09:44:46;;;;;;;6.55;2.50;;;21.30;99.90;;;;;;4992902;28;20065;-58
2022/08/18 09:47:32;;;;;;;10.50;2.65;;;21.40;99.90;;;;;;4989113;28;20050;-58
2022/08/18 09:50:27;;;;;;;9.02;2.88;;;21.60;99.90;;;;;;4987628;28;20065;-58
2022/08/18 09:52:57;;;;;;;7.05;2.97;;;21.60;99.90;;;;;;4961488;28;20116;-58
2022/08/18 09:55:41;;;;;;;10.45;3.70;;;21.60;99.90;;;;;;4988562;28;20061;-58
2022/08/18 09:58:48;;;;;;;8.65;3.67;;;21.60;99.90;;;;;;4988953;28;20074;-58
2022/08/18 10:01:30;;;;;;;11.73;3.63;;;21.60;99.90;;;;;;4959505;28;20058;-58
2022/08/18 10:04:14;;;;;;;8.90;3.47;;;21.70;99.90;;;;;;4988359;28;20104;-58
2022/08/18 10:06:45;;;;;;;8.73;3.25;;;21.60;99.90;;;;;;5000082;28;20056;-59
2022/08/18 10:09:20;;;;;;;6.53;3.25;;;21.80;99.90;;;;;;5014909;28;20052;-58
2022/08/18 10:12:04;;;;;;;9.13;2.92;;;21.60;99.90;;;;;;5027836;28;20042;-58
2022/08/18 10:14:36;;;;;;;10.48;3.60;;;21.60;99.90;;;;;;5015342;28;20076;-58
2022/08/18 10:17:43;;;;;;;7.07;3.10;;;21.60;99.90;;;;;;5008331;28;20425;-58
2022/08/18 10:20:17;;;;;;;6.68;2.47;;;21.60;99.90;;;;;;5007057;28;20045;-58
2022/08/18 10:22:47;;;;;;;8.50;2.67;;;21.60;99.90;;;;;;5007954;28;20183;-58
2022/08/18 10:25:28;;;;;;;7.25;2.60;;;21.70;99.90;;;;;;5007475;28;20042;-58
2022/08/18 10:27:55;;;;;;;6.32;2.80;;;21.70;99.90;;;;;;5007416;28;20584;-58
2022/08/18 10:30:33;;;;;;;9.20;2.85;;;21.70;99.90;;;;;;4989185;28;20088;-58
2022/08/18 10:33:11;;;;;;;5.88;2.28;;;21.60;99.90;;;;;;5007313;28;20099;-59
2022/08/18 10:35:36;;;;;;;8.07;2.80;;;21.60;99.90;;;;;;5006746;28;20129;-60
2022/08/18 10:38:20;;;;;;;9.02;3.08;;;21.50;99.90;;;;;;5007419;28;20121;-58
2022/08/18 10:41:05;;;;;;;8.52;2.58;;;21.50;99.90;;;;;;5007169;28;20045;-59
2022/08/18 10:43:46;;;;;;;7.13;3.03;;;21.60;99.90;;;;;;5007818;28;20137;-60
2022/08/18 10:46:21;;;;;;;5.22;2.20;;;21.60;99.90;;;;;;5007527;28;20049;-58
2022/08/18 10:49:20;;;;;;;5.70;2.00;;;21.60;99.90;;;;;;5007098;28;20045;-58
2022/08/18 10:52:07;;;;;;;6.95;2.10;;;21.50;99.90;;;;;;4982928;28;20058;-58
2022/08/18 10:54:50;;;;;;;4.78;2.00;;;21.60;99.90;;;;;;4983862;28;20047;-57
2022/08/18 10:57:42;;;;;;;5.03;2.10;;;21.80;99.90;;;;;;4983109;28;20135;-58
2022/08/18 11:00:17;;;;;;;6.22;2.40;;;21.90;99.90;;;;;;4982826;28;20050;-58
2022/08/18 11:03:15;;;;;;;4.63;2.30;;;22.00;99.90;;;;;;4982141;28;20449;-58
2022/08/18 11:05:41;;;;;;;7.47;2.03;;;22.00;99.90;;;;;;4981635;28;20100;-58
2022/08/18 11:08:12;;;;;;;6.50;2.17;;;22.00;99.90;;;;;;4983655;28;20480;-59
2022/08/18 11:10:47;;;;;;;4.30;2.10;;;22.00;99.90;;;;;;4990073;28;20768;-59
2022/08/18 11:13:20;;;;;;;5.85;2.38;;;22.10;99.90;;;;;;4983188;28;20049;-58
2022/08/18 11:16:11;;;;;;;3.40;1.70;;;22.10;99.90;;;;;;4982311;28;20513;-58
2022/08/18 11:18:47;;;;;;;4.93;2.10;;;22.20;99.90;;;;;;4982076;28;20492;-59
2022/08/18 11:21:34;;;;;;;5.13;1.90;;;22.20;99.90;;;;;;4984306;28;20050;-57
2022/08/18 11:24:12;;;;;;;7.07;2.20;;;22.30;99.90;;;;;;4983905;28;20128;-59
2022/08/18 11:27:18;;;;;;;5.53;2.13;;;22.30;99.90;;;;;;4982337;28;20054;-59
2022/08/18 11:29:45;;;;;;;4.10;1.80;;;22.50;99.90;;;;;;4980599;28;20107;-58
2022/08/18 11:32:36;;;;;;;4.80;2.03;;;22.60;99.90;;;;;;4982877;28;20050;-58
2022/08/18 11:35:04;;;;;;;4.22;1.65;;;22.70;99.90;;;;;;4982233;28;20046;-58
2022/08/18 11:37:42;;;;;;;4.47;2.00;;;22.70;99.90;;;;;;4982272;28;20118;-58
2022/08/18 11:40:30;;;;;;;3.35;1.70;;;22.60;99.90;;;;;;4982589;28;20034;-58
2022/08/18 11:43:08;;;;;;;7.00;2.30;;;22.60;99.90;;;;;;4982803;28;20042;-58
2022/08/18 11:45:46;;;;;;;6.55;2.55;;;22.50;99.90;;;;;;4983332;28;20045;-59
2022/08/18 11:48:20;;;;;;;4.65;2.00;;;22.50;99.90;;;;;;4981685;28;20404;-58
2022/08/18 11:50:51;;;;;;;5.82;1.90;;;22.50;99.90;;;;;;4982456;28;20074;-58
2022/08/18 11:53:38;;;;;;;5.47;1.90;;;22.40;99.90;;;;;;4965758;28;20054;-60
2022/08/18 11:56:08;;;;;;;5.35;1.80;;;22.40;99.90;;;;;;4983511;28;20090;-58
2022/08/18 11:58:44;;;;;;;5.30;1.90;;;22.20;99.90;;;;;;4982946;28;20632;-59
2022/08/18 12:01:27;;;;;;;5.05;2.08;;;22.30;99.90;;;;;;4981733;28;20082;-59
2022/08/18 12:04:10;;;;;;;7.30;2.35;;;22.30;99.90;;;;;;4982430;28;20061;-59
2022/08/18 12:07:00;;;;;;;4.32;1.83;;;22.30;99.90;;;;;;4982247;28;20043;-59
2022/08/18 12:09:44;;;;;;;4.90;1.77;;;22.40;99.90;;;;;;4981957;28;20547;-59
2022/08/18 12:12:22;;;;;;;;;;;22.30;99.90;;;;;;4983515;28;20049;-59
2022/08/18 12:14:56;;;;;;;3.40;1.70;;;22.30;99.90;;;;;;4982259;28;19925;-58
2022/08/18 12:17:23;;;;;;;3.95;1.60;;;22.30;99.90;;;;;;4990132;28;20492;-61
2022/08/18 12:19:52;;;;;;;4.78;1.40;;;22.30;99.90;;;;;;4980861;28;20488;-60
2022/08/18 12:22:24;;;;;;;2.72;1.63;;;22.40;99.90;;;;;;4982674;28;20440;-59
2022/08/18 12:24:51;;;;;;;6.07;1.85;;;22.50;99.90;;;;;;4982685;28;20715;-59
2022/08/18 12:27:22;;;;;;;7.63;1.85;;;22.50;99.90;;;;;;4982547;28;20133;-59
2022/08/18 12:29:54;;;;;;;5.57;1.73;;;22.40;99.90;;;;;;4981455;28;20105;-58
2022/08/18 12:32:21;;;;;;;3.50;1.58;;;22.30;99.90;;;;;;4981743;28;20046;-59
2022/08/18 12:34:48;;;;;;;4.93;1.83;;;22.40;99.90;;;;;;4981464;28;20133;-59
2022/08/18 12:37:16;;;;;;;4.22;1.92;;;22.50;99.90;;;;;;4982694;28;20145;-59
2022/08/18 12:39:43;;;;;;;4.65;1.98;;;22.60;99.90;;;;;;4982079;28;20061;-59
2022/08/18 12:42:10;;;;;;;3.90;1.83;;;22.60;99.90;;;;;;4982237;28;20405;-59
2022/08/18 12:44:36;;;;;;;4.47;1.88;;;22.60;99.90;;;;;;4981796;28;20052;-60
2022/08/18 12:47:09;;;;;;;2.80;1.70;;;22.70;99.90;;;;;;4981158;28;20077;-60
2022/08/18 12:49:35;;;;;;;3.45;1.60;;;22.80;99.90;;;;;;4981447;28;20042;-60
2022/08/18 12:52:01;;;;;;;3.95;1.58;;;23.00;99.90;;;;;;4990231;28;20504;-59
2022/08/18 12:54:27;;;;;;;3.95;1.77;;;23.30;99.90;;;;;;5001359;28;20049;-58
2022/08/18 12:56:55;;;;;;;3.55;1.80;;;23.60;99.90;;;;;;5001916;28;20042;-59
2022/08/18 12:59:21;;;;;;;3.30;1.75;;;24.20;99.90;;;;;;5000774;28;20037;-59
2022/08/18 13:01:46;;;;;;;5.63;1.90;;;24.50;99.90;;;;;;5001170;28;20049;-58
2022/08/18 13:04:12;;;;;;;3.88;2.13;;;24.60;99.90;;;;;;5001087;28;20495;-59
2022/08/18 13:06:43;;;;;;;3.72;2.35;;;24.70;99.90;;;;;;5001962;28;20499;-59
2022/08/18 13:09:09;;;;;;;3.83;2.47;;;24.60;99.90;;;;;;5001232;28;20046;-59
2022/08/18 13:11:34;;;;;;;4.45;2.10;;;24.70;99.90;;;;;;5001522;28;20369;-61
2022/08/18 13:14:00;;;;;;;6.88;2.22;;;24.50;99.90;;;;;;5002199;28;20065;-58
2022/08/18 13:16:28;;;;;;;5.55;1.98;;;24.80;99.90;;;;;;5001179;28;20042;-58
2022/08/18 13:18:53;;;;;;;3.90;2.25;;;24.80;99.90;;;;;;5000866;28;20126;-59
2022/08/18 13:21:19;;;;;;;5.05;2.22;;;24.90;99.90;;;;;;5000853;28;20437;-59
2022/08/18 13:23:45;;;;;;;3.20;1.88;;;24.60;99.90;;;;;;5001645;28;20378;-59
2022/08/18 13:26:25;;;;;;;5.85;2.13;;;24.60;99.90;;;;;;5001597;28;20065;-59
2022/08/18 13:28:51;;;;;;;4.80;2.50;;;24.60;99.90;;;;;;5001329;28;20131;-58
2022/08/18 13:31:17;;;;;;;6.03;2.17;;;24.40;99.90;;;;;;5001775;28;20501;-58
2022/08/18 13:33:42;;;;;;;7.40;2.20;;;24.50;99.90;;;;;;5000568;28;20125;-58